createdAt,value
2023-02-01T16:33:06.888Z,59.89
2023-02-01T16:34:07.915Z,59.69
2023-02-01T16:35:08.000Z,61.99
2023-02-01T16:36:07.831Z,59.69
2023-02-01T16:37:07.915Z,59.59
2023-02-01T16:38:07.875Z,59.49
2023-02-01T16:39:07.894Z,59.49
2023-02-01T16:40:07.802Z,59.56
2023-02-01T16:41:07.764Z,59.56
2023-02-01T16:42:07.718Z,59.36
2023-02-01T16:43:07.675Z,59.47
2023-02-01T16:44:07.650Z,59.36
2023-02-01T16:45:04.966Z,59.47
2023-02-01T16:46:06.131Z,62.16
2023-02-01T16:47:06.182Z,60.06
2023-02-01T16:48:06.290Z,59.36
2023-02-01T16:49:06.432Z,59.27
2023-02-01T16:50:17.492Z,59.44
2023-02-01T16:51:06.507Z,59.14
2023-02-01T16:52:06.534Z,59.23
2023-02-01T16:53:06.747Z,59.23
2023-02-01T16:54:06.732Z,59.34
2023-02-01T16:55:06.892Z,59.34
2023-02-01T16:56:07.843Z,59.14
2023-02-01T16:57:07.130Z,59.23
2023-02-01T16:58:07.193Z,59.44
2023-02-01T16:59:07.164Z,60.74
2023-02-01T17:00:22.223Z,58.91
2023-02-01T17:01:07.364Z,58.81
2023-02-01T17:02:07.493Z,58.91
2023-02-01T17:03:07.604Z,59.01
2023-02-01T17:04:07.639Z,58.81
2023-02-01T17:05:07.778Z,58.81
2023-02-01T17:06:07.859Z,58.91
2023-02-01T17:07:07.868Z,58.81
2023-02-01T17:08:07.962Z,58.91
2023-02-01T17:09:08.194Z,59.01
2023-02-01T17:13:42.930Z,59.31
2023-02-01T17:14:44.009Z,59.21
2023-02-01T17:15:44.142Z,59.11
2023-02-01T17:16:44.297Z,59.11
2023-02-01T17:17:44.279Z,59.21
2023-02-01T17:18:44.417Z,59.21
2023-02-01T17:19:44.474Z,59.31
2023-02-01T17:20:44.520Z,59.41
2023-02-01T17:21:44.605Z,59.31
2023-02-01T17:22:44.770Z,62.20
2023-02-01T17:23:44.897Z,60.11
2023-02-01T17:24:48.987Z,59.91
2023-02-01T17:25:44.953Z,60.11
2023-02-01T17:26:46.178Z,63.00
2023-02-01T17:27:45.185Z,61.30
2023-02-01T17:28:45.341Z,60.21
2023-02-01T17:29:45.327Z,61.68
2023-02-01T17:30:45.475Z,61.87
2023-02-01T17:31:45.603Z,60.68
2023-02-01T17:32:45.719Z,59.68
2023-02-01T17:33:45.634Z,61.27
2023-02-01T17:34:45.774Z,59.58
2023-02-01T17:35:45.813Z,59.48
2023-02-01T17:36:45.901Z,59.38
2023-02-01T17:37:46.029Z,59.48
2023-02-01T17:38:53.836Z,59.68
2023-02-01T17:39:46.661Z,59.58
2023-02-01T17:40:46.282Z,59.48
2023-02-01T17:41:46.325Z,59.68
2023-02-01T17:42:46.452Z,60.38
2023-02-01T17:43:46.522Z,59.68
2023-02-01T17:44:46.559Z,60.28
2023-02-01T17:45:46.650Z,59.58
2023-02-01T17:46:46.681Z,59.38
2023-02-01T17:47:46.748Z,59.08
2023-02-01T17:48:47.399Z,59.08
2023-02-01T17:49:46.930Z,58.38
2023-02-01T17:50:46.957Z,58.18
2023-02-01T17:51:47.081Z,57.88
2023-02-01T17:52:47.195Z,57.58
2023-02-01T17:53:47.270Z,57.98
2023-02-01T17:54:47.286Z,57.28
2023-02-01T17:55:47.300Z,57.09
2023-02-01T17:56:47.381Z,57.68
2023-02-01T17:57:47.482Z,57.68
2023-02-01T17:58:47.604Z,58.08
2023-02-01T17:59:47.776Z,58.88
2023-02-01T18:00:47.725Z,58.48
2023-02-01T18:01:47.814Z,58.28
2023-02-01T18:02:47.878Z,58.48
2023-02-01T18:03:48.014Z,58.36
2023-02-01T18:04:47.967Z,58.15
2023-02-01T18:05:48.025Z,58.15
2023-02-01T18:06:48.188Z,58.06
2023-02-01T18:07:48.224Z,57.76
2023-02-01T18:08:48.307Z,57.35
2023-02-01T18:09:48.458Z,57.35
2023-02-01T18:10:48.500Z,57.35
2023-02-01T18:11:48.532Z,57.26
2023-02-01T18:12:48.585Z,56.96
2023-02-01T18:13:49.312Z,57.26
2023-02-01T18:14:48.813Z,57.26
2023-02-01T18:15:48.919Z,57.26
2023-02-01T18:16:48.870Z,57.06
2023-02-01T18:17:49.057Z,57.15
2023-02-01T18:18:49.137Z,57.56
2023-02-01T18:19:49.231Z,57.35
2023-02-01T18:20:49.238Z,57.58
2023-02-01T18:21:49.228Z,57.58
2023-02-01T18:22:49.436Z,61.38
2023-02-01T18:23:49.453Z,57.68
2023-02-01T18:24:49.482Z,57.58
2023-02-01T18:25:49.587Z,57.78
2023-02-01T18:26:49.727Z,57.68
2023-02-01T18:27:49.813Z,57.68
2023-02-01T18:28:49.783Z,57.78
2023-02-01T18:29:49.941Z,57.68
2023-02-01T18:30:49.938Z,57.78
2023-02-01T18:31:50.218Z,57.68
2023-02-01T18:32:50.017Z,57.98
2023-02-01T18:33:50.190Z,57.98
2023-02-01T18:34:50.301Z,59.18
2023-02-01T18:35:50.282Z,57.88
2023-02-01T18:36:50.294Z,58.01
2023-02-01T18:37:50.393Z,58.11
2023-02-01T18:38:50.477Z,58.01
2023-02-01T18:39:51.298Z,58.01
2023-02-01T18:40:50.703Z,58.01
2023-02-01T18:41:50.794Z,58.01
2023-02-01T18:42:50.776Z,58.01
2023-02-01T18:43:50.944Z,58.01
2023-02-01T18:44:50.978Z,58.11
2023-02-01T18:45:51.072Z,58.11
2023-02-01T18:46:51.133Z,58.11
2023-02-01T18:47:51.242Z,58.01
2023-02-01T18:48:51.307Z,59.21
2023-02-01T18:49:51.398Z,58.21
2023-02-01T18:50:51.438Z,58.11
2023-02-01T18:51:51.528Z,58.21
2023-02-01T18:52:51.562Z,58.21
2023-02-01T18:53:51.615Z,58.11
2023-02-01T18:54:59.426Z,58.11
2023-02-01T18:55:51.778Z,58.21
2023-02-01T18:56:51.865Z,58.01
2023-02-01T18:57:51.872Z,58.11
2023-02-01T18:58:51.964Z,58.11
2023-02-01T18:59:52.054Z,58.31
2023-02-01T19:00:52.188Z,58.31
2023-02-01T19:01:52.387Z,58.21
2023-02-01T19:02:52.361Z,58.21
2023-02-01T19:03:54.141Z,58.31
2023-02-01T19:04:52.558Z,58.21
2023-02-01T19:05:52.605Z,58.31
2023-02-01T19:06:52.687Z,58.31
2023-02-01T19:07:52.713Z,58.31
2023-02-01T19:08:52.802Z,58.41
2023-02-01T19:09:52.871Z,58.31
2023-02-01T19:10:52.966Z,58.31
2023-02-01T19:11:53.061Z,58.31
2023-02-01T19:12:53.105Z,58.51
2023-02-01T19:13:53.226Z,58.44
2023-02-01T19:14:53.305Z,58.34
2023-02-01T19:15:53.424Z,58.44
2023-02-01T19:16:53.514Z,58.44
2023-02-01T19:17:53.511Z,58.64
2023-02-01T19:18:53.586Z,58.24
2023-02-01T19:19:53.659Z,58.54
2023-02-01T19:20:53.814Z,57.74
2023-02-01T19:21:53.836Z,57.93
2023-02-01T19:22:53.990Z,58.54
2023-02-01T19:23:54.018Z,58.14
2023-02-01T19:24:55.035Z,57.84
2023-02-01T19:25:54.229Z,58.14
2023-02-01T19:26:54.312Z,58.14
2023-02-01T19:27:54.414Z,58.44
2023-02-01T19:28:54.443Z,58.34
2023-02-01T19:29:54.473Z,58.14
2023-02-01T19:30:55.007Z,57.93
2023-02-01T19:31:54.731Z,58.94
2023-02-01T19:32:55.045Z,58.94
2023-02-01T19:33:54.847Z,59.74
2023-02-01T19:34:54.837Z,58.84
2023-02-01T19:35:54.925Z,58.54
2023-02-01T19:36:55.152Z,58.84
2023-02-01T19:37:55.011Z,58.34
2023-02-01T19:38:55.097Z,58.24
2023-02-01T19:39:55.752Z,58.24
2023-02-01T19:40:55.297Z,58.24
2023-02-01T19:41:55.622Z,58.44
2023-02-01T19:42:55.530Z,58.44
2023-02-01T19:43:55.565Z,58.54
2023-02-01T19:44:56.681Z,58.73
2023-02-01T19:45:55.678Z,58.64
2023-02-01T19:46:56.365Z,58.64
2023-02-01T19:47:55.773Z,59.44
2023-02-01T19:48:55.932Z,59.53
2023-02-01T19:49:55.941Z,58.84
2023-02-01T19:50:57.684Z,58.73
2023-02-01T19:51:56.057Z,58.73
2023-02-01T19:52:56.246Z,58.73
2023-02-01T19:53:56.156Z,58.73
2023-02-01T19:54:56.227Z,58.73
2023-02-01T19:55:56.382Z,58.73
2023-02-01T19:56:56.336Z,58.84
2023-02-01T19:57:56.471Z,58.94
2023-02-01T19:58:57.325Z,58.84
2023-02-01T19:59:56.599Z,58.84
2023-02-01T20:00:55.853Z,58.84
2023-02-01T20:01:55.808Z,58.84
2023-02-01T20:02:55.835Z,58.84
2023-02-01T20:03:56.056Z,58.84
2023-02-01T20:04:56.105Z,58.84
2023-02-01T20:05:56.192Z,58.94
2023-02-01T20:06:56.256Z,58.97
2023-02-01T20:07:56.231Z,59.06
2023-02-01T20:08:56.543Z,59.17
2023-02-01T20:09:56.458Z,59.17
2023-02-01T20:10:56.635Z,59.27
2023-02-01T20:11:56.643Z,59.27
2023-02-01T20:12:56.777Z,59.27
2023-02-01T20:13:56.748Z,59.36
2023-02-01T20:14:56.901Z,59.47
2023-02-01T20:15:56.983Z,59.66
2023-02-01T20:16:57.063Z,59.47
2023-02-01T20:17:57.131Z,59.56
2023-02-01T20:18:57.264Z,59.47
2023-02-01T20:19:57.352Z,58.06
2023-02-01T20:20:57.516Z,58.47
2023-02-01T20:21:57.563Z,59.17
2023-02-01T20:22:57.635Z,59.06
2023-02-01T20:23:57.689Z,59.06
2023-02-01T20:24:57.847Z,59.17
2023-02-01T20:25:58.859Z,59.17
2023-02-01T20:26:58.831Z,59.17
2023-02-01T20:27:58.893Z,59.27
2023-02-01T20:28:58.966Z,59.27
2023-02-01T20:29:59.084Z,59.36
2023-02-01T20:30:59.232Z,59.36
2023-02-01T20:31:59.213Z,59.47
2023-02-01T20:32:59.258Z,59.36
2023-02-01T20:33:59.312Z,59.47
2023-02-01T20:34:59.413Z,59.47
2023-02-01T20:35:59.580Z,59.56
2023-02-01T20:36:59.600Z,59.56
2023-02-01T20:37:59.728Z,59.66
2023-02-01T20:38:59.760Z,59.77
2023-02-01T20:39:59.830Z,59.77
2023-02-01T20:40:59.941Z,59.97
2023-02-01T20:42:00.025Z,60.46
2023-02-01T20:43:00.062Z,60.27
2023-02-01T20:44:00.772Z,60.46
